Etusivu
METAR-TAF:

METAR-TAF

Lentoasemat :

Enontekiö, Suomi

Enontekiön lentoasema

Leveyspiiri: 68-21-52N, Pituuspiiri: 023-25-39E, korkeus merenpinnasta: 308 m

Tämänhetkinen sää

Tämä raportti tehtiin 29 minuuttia sitten, kello 22.20 UTC
Tuuli 6 kn pohjoisesta/koillisesta, vaihdellen pohjoisen ja idän/koillisen välillä
Lämpötila -10°C
Kosteus 85%
Ilmanpaine 995 hPa
Näkyvyys: 8000 m
Pilvistä 400 ft:n korkeudessa

METAR: EFET 172220Z AUTO 03006KT 360V070 8000 OVC004 M10/M12 Q0995

Aika: 00:49 (22:49 UTC)


TAF: puuttuu

Säähavainnot ja -ennusteet yli 4000 lentoasemalta (METAR- ja TAF-raportit).

Käytössä olevat sääasemat on merkitty karttaan keltaisilla ja punaisilla pisteillä.

Aseta hiiri pisteen päälle nähdäksesi sääaseman nimen.

Klikkaa sitten nähdäksesi säähavainnot ja -ennusteet.

Kartan vaihtaminen: klikkaa mustalla rastilla varustettuja vihreitä pisteitä, niin voit zoomata sisään; viivalla varustettua vihreää pistettä, niin voit zoomata ulos tai vihreitä nuolia, niin pääset viereisille kartoille.


METAR-TAF: